Time,TemperatureF,DewpointF,PressureIn,WindDirection,WindDirectionDegrees,WindSpeedMPH,WindSpeedGustMPH,Humidity,HourlyPrecipIn,Conditions,Clouds,dailyrainin,SoftwareType,DateUTC
2013-10-16 00:01:00,56.0,53.0,30.05,ENE,62,0.0,0.0,90,0.00,,,0.00,weatherlink.com 1.10,2013-10-16 04:01:00,
2013-10-16 00:16:00,56.0,53.0,30.05,ENE,62,0.0,0.0,90,0.00,,,0.00,weatherlink.com 1.10,2013-10-16 04:16:00,
2013-10-16 00:31:00,56.2,54.0,30.05,ENE,62,0.0,0.0,91,0.00,,,0.00,weatherlink.com 1.10,2013-10-16 04:31:00,
2013-10-16 00:46:00,56.5,54.0,30.05,ENE,62,0.0,0.0,91,0.00,,,0.00,weatherlink.com 1.10,2013-10-16 04:46:00,
2013-10-16 01:01:00,56.7,54.0,30.04,ENE,62,0.0,0.0,91,0.00,,,0.00,weatherlink.com 1.10,2013-10-16 05:01:00,
2013-10-16 01:16:00,56.7,54.0,30.04,ENE,62,0.0,0.0,91,0.00,,,0.00,weatherlink.com 1.10,2013-10-16 05:16:00,
2013-10-16 01:31:00,56.7,54.0,30.04,ENE,62,0.0,0.0,91,0.00,,,0.00,weatherlink.com 1.10,2013-10-16 05:31:00,
2013-10-16 01:46:00,56.6,54.0,30.03,ENE,62,0.0,0.0,91,0.00,,,0.00,weatherlink.com 1.10,2013-10-16 05:46:00,
2013-10-16 02:01:00,56.5,54.0,30.04,ENE,62,0.0,0.0,92,0.00,,,0.00,weatherlink.com 1.10,2013-10-16 06:01:00,
2013-10-16 02:16:00,56.5,54.0,30.02,ENE,62,0.0,0.0,92,0.00,,,0.00,weatherlink.com 1.10,2013-10-16 06:16:00,
2013-10-16 02:31:00,56.6,54.0,30.02,ENE,62,0.0,0.0,92,0.00,,,0.00,weatherlink.com 1.10,2013-10-16 06:31:00,
2013-10-16 02:46:00,56.6,54.0,30.02,ENE,62,0.0,0.0,92,0.00,,,0.00,weatherlink.com 1.10,2013-10-16 06:46:00,
2013-10-16 03:01:00,56.5,54.0,30.02,ENE,62,0.0,0.0,91,0.00,,,0.00,weatherlink.com 1.10,2013-10-16 07:01:00,
2013-10-16 03:16:00,56.2,54.0,30.01,ENE,62,0.0,0.0,91,0.00,,,0.00,weatherlink.com 1.10,2013-10-16 07:16:00,
2013-10-16 03:31:00,55.9,53.0,30.00,ENE,62,0.0,0.0,91,0.00,,,0.00,weatherlink.com 1.10,2013-10-16 07:31:00,
2013-10-16 03:46:00,55.4,53.0,30.00,ENE,62,0.0,0.0,92,0.00,,,0.00,weatherlink.com 1.10,2013-10-16 07:46:00,
2013-10-16 04:01:00,55.1,53.0,30.00,ENE,62,0.0,0.0,92,0.00,,,0.00,weatherlink.com 1.10,2013-10-16 08:01:00,
2013-10-16 04:17:00,55.0,53.0,30.00,ENE,62,0.0,0.0,93,0.00,,,0.00,weatherlink.com 1.10,2013-10-16 08:17:00,
2013-10-16 04:32:00,54.7,53.0,30.00,ENE,62,0.0,0.0,93,0.00,,,0.00,weatherlink.com 1.10,2013-10-16 08:32:00,
2013-10-16 04:47:00,54.4,53.0,30.00,ENE,62,0.0,0.0,93,0.00,,,0.00,weatherlink.com 1.10,2013-10-16 08:47:00,
2013-10-16 05:02:00,54.1,52.0,30.00,ENE,62,0.0,0.0,93,0.00,,,0.00,weatherlink.com 1.10,2013-10-16 09:02:00,
2013-10-16 05:17:00,53.9,52.0,30.01,ENE,62,0.0,0.0,94,0.00,,,0.00,weatherlink.com 1.10,2013-10-16 09:17:00,
2013-10-16 05:32:00,53.6,52.0,30.01,ENE,62,0.0,0.0,94,0.00,,,0.00,weatherlink.com 1.10,2013-10-16 09:32:00,
2013-10-16 05:47:00,53.5,52.0,30.01,ENE,62,0.0,0.0,95,0.00,,,0.00,weatherlink.com 1.10,2013-10-16 09:47:00,
2013-10-16 06:02:00,53.3,52.0,30.01,ENE,62,0.0,0.0,95,0.00,,,0.00,weatherlink.com 1.10,2013-10-16 10:02:00,
2013-10-16 06:17:00,53.1,52.0,30.01,ENE,62,0.0,0.0,95,0.00,,,0.00,weatherlink.com 1.10,2013-10-16 10:17:00,
2013-10-16 06:32:00,52.9,52.0,30.01,ENE,62,0.0,0.0,95,0.00,,,0.00,weatherlink.com 1.10,2013-10-16 10:32:00,
2013-10-16 06:47:00,52.9,52.0,30.01,ENE,62,0.0,0.0,95,0.00,,,0.00,weatherlink.com 1.10,2013-10-16 10:47:00,
2013-10-16 07:02:00,52.6,51.0,30.01,ENE,62,0.0,0.0,95,0.00,,,0.00,weatherlink.com 1.10,2013-10-16 11:02:00,
2013-10-16 07:17:00,52.3,51.0,30.02,ENE,62,0.0,0.0,95,0.00,,,0.00,weatherlink.com 1.10,2013-10-16 11:17:00,
2013-10-16 07:32:00,52.3,51.0,30.02,ENE,62,0.0,0.0,96,0.00,,,0.00,weatherlink.com 1.10,2013-10-16 11:32:00,
2013-10-16 07:47:00,52.3,51.0,30.02,ENE,62,0.0,0.0,96,0.00,,,0.00,weatherlink.com 1.10,2013-10-16 11:47:00,
2013-10-16 08:02:00,53.1,52.0,30.03,ENE,62,0.0,0.0,96,0.00,,,0.00,weatherlink.com 1.10,2013-10-16 12:02:00,
2013-10-16 08:17:00,53.8,53.0,30.04,ENE,62,0.0,0.0,97,0.00,,,0.00,weatherlink.com 1.10,2013-10-16 12:17:00,
2013-10-16 08:32:00,54.8,54.0,30.04,ENE,62,0.0,0.0,98,0.00,,,0.00,weatherlink.com 1.10,2013-10-16 12:32:00,
2013-10-16 08:47:00,55.9,55.0,30.04,ENE,62,0.0,0.0,98,0.00,,,0.00,weatherlink.com 1.10,2013-10-16 12:47:00,
2013-10-16 09:02:00,56.6,56.0,30.05,ENE,62,0.0,0.0,98,0.00,,,0.00,weatherlink.com 1.10,2013-10-16 13:02:00,
2013-10-16 09:17:00,57.3,57.0,30.05,ENE,62,0.0,0.0,97,0.00,,,0.00,weatherlink.com 1.10,2013-10-16 13:17:00,
2013-10-16 09:32:00,57.8,56.0,30.06,ENE,62,0.0,0.0,95,0.00,,,0.00,weatherlink.com 1.10,2013-10-16 13:32:00,
2013-10-16 09:47:00,58.6,56.0,30.05,ENE,62,0.0,0.0,92,0.00,,,0.00,weatherlink.com 1.10,2013-10-16 13:47:00,
2013-10-16 10:02:00,60.1,57.0,30.05,ENE,62,0.0,1.0,89,0.00,,,0.00,weatherlink.com 1.10,2013-10-16 14:02:00,
2013-10-16 10:17:00,62.4,59.0,30.04,ESE,111,0.0,1.0,87,0.00,,,0.00,weatherlink.com 1.10,2013-10-16 14:17:00,
2013-10-16 10:32:00,64.0,60.0,30.04,South,188,0.0,2.0,85,0.00,,,0.00,weatherlink.com 1.10,2013-10-16 14:32:00,
2013-10-16 10:47:00,65.0,60.0,30.03,SSE,149,0.0,1.0,84,0.00,,,0.00,weatherlink.com 1.10,2013-10-16 14:47:00,
2013-10-16 11:02:00,65.3,59.0,30.03,WSW,248,0.0,2.0,81,0.00,,,0.00,weatherlink.com 1.10,2013-10-16 15:02:00,
2013-10-16 11:17:00,65.5,60.0,30.03,SW,218,0.0,0.0,82,0.00,,,0.00,weatherlink.com 1.10,2013-10-16 15:17:00,
2013-10-16 11:32:00,67.1,60.0,30.04,SE,139,0.0,1.0,79,0.00,,,0.00,weatherlink.com 1.10,2013-10-16 15:32:00,
2013-10-16 11:47:00,69.1,60.0,30.03,SE,133,0.0,1.0,72,0.00,,,0.00,weatherlink.com 1.10,2013-10-16 15:47:00,
2013-10-16 12:02:00,69.4,59.0,30.04,South,170,0.0,3.0,70,0.00,,,0.00,weatherlink.com 1.10,2013-10-16 16:02:00,
2013-10-16 12:17:00,68.8,60.0,30.04,South,170,0.0,1.0,73,0.00,,,0.00,weatherlink.com 1.10,2013-10-16 16:17:00,
2013-10-16 12:32:00,69.9,59.0,30.02,SSW,196,0.0,3.0,69,0.00,,,0.00,weatherlink.com 1.10,2013-10-16 16:32:00,
2013-10-16 12:47:00,71.8,58.0,30.02,SSW,200,2.0,3.0,63,0.00,,,0.00,weatherlink.com 1.10,2013-10-16 16:47:00,
2013-10-16 13:02:00,72.7,60.0,30.01,NW,308,0.0,3.0,64,0.00,,,0.00,weatherlink.com 1.10,2013-10-16 17:02:00,
2013-10-16 13:17:00,73.0,58.0,30.00,NE,38,0.0,4.0,59,0.00,,,0.00,weatherlink.com 1.10,2013-10-16 17:17:00,
2013-10-16 13:32:00,73.9,59.0,29.99,SSW,196,0.0,2.0,59,0.00,,,0.00,weatherlink.com 1.10,2013-10-16 17:32:00,
2013-10-16 13:47:00,73.7,59.0,29.98,SW,227,1.0,2.0,60,0.00,,,0.00,weatherlink.com 1.10,2013-10-16 17:47:00,
2013-10-16 14:03:00,74.0,59.0,29.97,West,269,0.0,4.0,59,0.00,,,0.00,weatherlink.com 1.10,2013-10-16 18:03:00,
2013-10-16 14:33:00,74.0,59.0,29.96,WSW,252,0.0,1.0,60,0.00,,,0.00,weatherlink.com 1.10,2013-10-16 18:33:00,
2013-10-16 14:48:00,73.5,58.0,29.95,SSE,167,0.0,2.0,59,0.00,,,0.00,weatherlink.com 1.10,2013-10-16 18:48:00,
2013-10-16 15:03:00,73.9,59.0,29.95,SSE,168,0.0,0.0,60,0.00,,,0.00,weatherlink.com 1.10,2013-10-16 19:03:00,
2013-10-16 15:18:00,73.9,59.0,29.95,SW,234,0.0,2.0,59,0.00,,,0.00,weatherlink.com 1.10,2013-10-16 19:18:00,
2013-10-16 15:33:00,73.3,59.0,29.95,South,178,0.0,1.0,61,0.00,,,0.00,weatherlink.com 1.10,2013-10-16 19:33:00,
2013-10-16 15:48:00,72.8,59.0,29.95,South,178,0.0,0.0,63,0.00,,,0.00,weatherlink.com 1.10,2013-10-16 19:48:00,
2013-10-16 16:03:00,72.5,59.0,29.95,South,178,0.0,1.0,63,0.00,,,0.00,weatherlink.com 1.10,2013-10-16 20:03:00,
2013-10-16 16:18:00,73.0,59.0,29.94,SSE,167,0.0,1.0,62,0.00,,,0.00,weatherlink.com 1.10,2013-10-16 20:18:00,
2013-10-16 16:33:00,72.7,60.0,29.94,SSE,165,0.0,0.0,64,0.00,,,0.00,weatherlink.com 1.10,2013-10-16 20:33:00,
2013-10-16 16:48:00,72.3,60.0,29.94,SSE,165,0.0,0.0,65,0.00,,,0.00,weatherlink.com 1.10,2013-10-16 20:48:00,
2013-10-16 17:03:00,72.0,59.0,29.94,SSE,165,0.0,0.0,64,0.00,,,0.00,weatherlink.com 1.10,2013-10-16 21:03:00,
2013-10-16 17:18:00,71.8,61.0,29.94,SSE,165,0.0,0.0,68,0.00,,,0.00,weatherlink.com 1.10,2013-10-16 21:18:00,
2013-10-16 17:33:00,71.6,61.0,29.94,SSE,165,0.0,0.0,69,0.00,,,0.00,weatherlink.com 1.10,2013-10-16 21:33:00,
2013-10-16 17:48:00,70.6,60.0,29.93,SSE,165,0.0,0.0,70,0.00,,,0.00,weatherlink.com 1.10,2013-10-16 21:48:00,
2013-10-16 18:03:00,69.8,61.0,29.93,SSE,165,0.0,0.0,73,0.00,,,0.00,weatherlink.com 1.10,2013-10-16 22:03:00,
2013-10-16 18:18:00,68.9,61.0,29.93,SSE,165,0.0,0.0,76,0.00,,,0.00,weatherlink.com 1.10,2013-10-16 22:18:00,
2013-10-16 18:33:00,68.4,61.0,29.94,SSE,165,0.0,0.0,78,0.00,,,0.00,weatherlink.com 1.10,2013-10-16 22:33:00,
2013-10-16 18:48:00,67.9,62.0,29.94,SSE,165,0.0,0.0,80,0.00,,,0.00,weatherlink.com 1.10,2013-10-16 22:48:00,
2013-10-16 19:03:00,66.9,62.0,29.95,SSE,165,0.0,0.0,83,0.00,,,0.00,weatherlink.com 1.10,2013-10-16 23:03:00,
2013-10-16 19:18:00,66.3,61.0,29.96,SSE,165,0.0,0.0,84,0.00,,,0.00,weatherlink.com 1.10,2013-10-16 23:18:00,
2013-10-16 19:33:00,65.8,61.0,29.96,SSE,165,0.0,0.0,85,0.00,,,0.00,weatherlink.com 1.10,2013-10-16 23:33:00,
2013-10-16 19:48:00,65.8,61.0,29.96,SSE,165,0.0,0.0,85,0.00,,,0.00,weatherlink.com 1.10,2013-10-16 23:48:00,
2013-10-16 20:03:00,65.8,61.0,29.96,SSE,165,0.0,0.0,84,0.00,,,0.00,weatherlink.com 1.10,2013-10-17 00:03:00,
2013-10-16 20:18:00,65.8,61.0,29.95,SSE,165,0.0,0.0,84,0.00,,,0.00,weatherlink.com 1.10,2013-10-17 00:18:00,
2013-10-16 20:33:00,65.6,61.0,29.95,SSE,165,0.0,0.0,85,0.00,,,0.00,weatherlink.com 1.10,2013-10-17 00:33:00,
2013-10-16 20:48:00,65.3,61.0,29.95,SSE,165,0.0,0.0,86,0.00,,,0.00,weatherlink.com 1.10,2013-10-17 00:48:00,
2013-10-16 21:03:00,64.7,61.0,29.96,SSE,165,0.0,0.0,87,0.00,,,0.00,weatherlink.com 1.10,2013-10-17 01:03:00,
2013-10-16 21:18:00,64.3,61.0,29.96,SSE,165,0.0,0.0,88,0.00,,,0.00,weatherlink.com 1.10,2013-10-17 01:18:00,
2013-10-16 21:33:00,64.2,61.0,29.96,SSE,165,0.0,0.0,89,0.00,,,0.00,weatherlink.com 1.10,2013-10-17 01:33:00,
2013-10-16 21:48:00,63.9,61.0,29.96,SSE,165,0.0,0.0,89,0.00,,,0.00,weatherlink.com 1.10,2013-10-17 01:48:00,
2013-10-16 22:03:00,63.7,61.0,29.96,SSE,165,0.0,0.0,89,0.00,,,0.00,weatherlink.com 1.10,2013-10-17 02:03:00,
2013-10-16 22:18:00,63.4,61.0,29.96,SSE,165,0.0,0.0,90,0.00,,,0.00,weatherlink.com 1.10,2013-10-17 02:18:00,
2013-10-16 22:33:00,63.2,60.0,29.96,SSE,165,0.0,0.0,90,0.00,,,0.00,weatherlink.com 1.10,2013-10-17 02:33:00,
2013-10-16 22:48:00,62.9,60.0,29.96,SSE,165,0.0,0.0,91,0.00,,,0.00,weatherlink.com 1.10,2013-10-17 02:48:00,
2013-10-16 23:03:00,62.4,60.0,29.97,SSE,165,0.0,0.0,91,0.00,,,0.00,weatherlink.com 1.10,2013-10-17 03:03:00,
2013-10-16 23:18:00,62.3,60.0,29.97,SSE,165,0.0,0.0,92,0.00,,,0.00,weatherlink.com 1.10,2013-10-17 03:18:00,
2013-10-16 23:33:00,62.0,60.0,29.96,SSE,165,0.0,0.0,92,0.00,,,0.00,weatherlink.com 1.10,2013-10-17 03:33:00,
2013-10-16 23:48:00,61.6,60.0,29.96,SSE,165,0.0,0.0,93,0.00,,,0.00,weatherlink.com 1.10,2013-10-17 03:48:00,